createdAt,value
2016-04-07T00:00:36.791Z,0
2016-04-07T00:01:36.761Z,0
2016-04-07T00:02:36.702Z,0
2016-04-07T00:03:36.642Z,0
2016-04-07T00:04:36.583Z,0
2016-04-07T00:05:36.507Z,0
2016-04-07T00:06:36.463Z,0
2016-04-07T00:07:36.403Z,0
2016-04-07T00:08:36.391Z,0
2016-04-07T00:09:36.299Z,0
2016-04-07T00:10:36.239Z,0
2016-04-07T00:11:36.195Z,0
2016-04-07T00:12:36.136Z,0
2016-04-07T00:13:36.091Z,0
2016-04-07T00:14:36.063Z,0
2016-04-07T00:15:36.002Z,0
2016-04-07T00:16:35.951Z,0
2016-04-07T00:17:35.936Z,0
2016-04-07T00:18:35.936Z,0
2016-04-07T00:19:35.936Z,0
2016-04-07T00:20:35.952Z,0
2016-04-07T00:21:35.889Z,0
2016-04-07T00:22:35.861Z,0
2016-04-07T00:23:35.942Z,0
2016-04-07T00:24:35.772Z,0
2016-04-07T00:25:35.744Z,0
2016-04-07T00:26:35.538Z,0
2016-04-07T00:27:35.671Z,0
2016-04-07T00:28:35.601Z,0
2016-04-07T00:29:35.564Z,0
2016-04-07T00:30:35.493Z,0
2016-04-07T00:31:35.453Z,0
2016-04-07T00:32:35.427Z,0
2016-04-07T00:33:35.353Z,0
2016-04-07T00:34:35.295Z,0
2016-04-07T00:35:35.268Z,0
2016-04-07T00:36:35.210Z,0
2016-04-07T00:37:35.151Z,0
2016-04-07T00:38:35.139Z,0
2016-04-07T00:39:35.049Z,0
2016-04-07T00:40:34.974Z,0
2016-04-07T00:41:34.947Z,0
2016-04-07T00:42:34.917Z,0
2016-04-07T00:43:34.828Z,0
2016-04-07T00:44:34.784Z,0
2016-04-07T00:45:34.723Z,0
2016-04-07T00:46:34.680Z,0
2016-04-07T00:47:34.604Z,0
2016-04-07T00:48:34.575Z,0
2016-04-07T00:49:34.515Z,0
2016-04-07T00:50:34.456Z,0
2016-04-07T00:51:34.428Z,0
2016-04-07T00:52:34.352Z,0
2016-04-07T00:53:34.355Z,0
2016-04-07T00:54:34.233Z,0
2016-04-07T00:55:34.189Z,0
2016-04-07T00:56:34.113Z,0
2016-04-07T00:57:34.084Z,0
2016-04-07T00:58:33.994Z,0
2016-04-07T00:59:33.980Z,0
2016-04-07T01:00:33.920Z,0
2016-04-07T01:01:33.877Z,0
2016-04-07T01:02:33.817Z,0
2016-04-07T01:03:33.772Z,0
2016-04-07T01:04:33.697Z,0
2016-04-07T01:05:33.684Z,0
2016-04-07T01:06:33.609Z,0
2016-04-07T01:07:33.549Z,0
2016-04-07T01:08:33.583Z,0
2016-04-07T01:09:33.430Z,0
2016-04-07T01:10:33.369Z,0
2016-04-07T01:11:33.310Z,0
2016-04-07T01:12:33.250Z,0
2016-04-07T01:13:33.221Z,0
2016-04-07T01:14:33.146Z,0
2016-04-07T01:15:33.118Z,0
2016-04-07T01:16:33.057Z,0
2016-04-07T01:17:33.012Z,0
2016-04-07T01:18:32.937Z,0
2016-04-07T01:19:32.878Z,0
2016-04-07T01:20:32.849Z,0
2016-04-07T01:21:32.774Z,0
2016-04-07T01:22:32.745Z,0
2016-04-07T01:23:32.811Z,0
2016-04-07T01:24:32.609Z,0
2016-04-07T01:25:32.550Z,0
2016-04-07T01:26:32.490Z,0
2016-04-07T01:27:32.447Z,0
2016-04-07T01:28:32.417Z,0
2016-04-07T01:29:32.327Z,0
2016-04-07T01:30:32.283Z,0
2016-04-07T01:31:32.253Z,0
2016-04-07T01:32:32.178Z,0
2016-04-07T01:33:32.103Z,0
2016-04-07T01:34:32.074Z,0
2016-04-07T01:35:32.030Z,0
2016-04-07T01:36:31.955Z,0
2016-04-07T01:37:31.895Z,0
2016-04-07T01:38:31.852Z,0
2016-04-07T01:39:31.822Z,0
2016-04-07T01:40:31.747Z,0
2016-04-07T01:41:31.687Z,0
2016-04-07T01:42:31.674Z,0
2016-04-07T01:43:31.599Z,0
2016-04-07T01:44:31.539Z,0
2016-04-07T01:45:31.463Z,0
2016-04-07T01:46:31.419Z,0
2016-04-07T01:47:31.375Z,0
2016-04-07T01:48:31.299Z,0
2016-04-07T01:49:31.256Z,0
2016-04-07T01:50:31.227Z,0
2016-04-07T01:51:31.151Z,0
2016-04-07T01:52:31.092Z,0
2016-04-07T01:53:31.048Z,0
2016-04-07T01:54:30.987Z,0
2016-04-07T01:55:30.928Z,0
2016-04-07T01:56:30.728Z,0
2016-04-07T01:57:30.823Z,0
2016-04-07T01:58:30.764Z,0
2016-04-07T01:59:30.719Z,0
2016-04-07T02:00:30.675Z,0
2016-04-07T02:01:30.616Z,0
2016-04-07T02:02:30.572Z,0
2016-04-07T02:03:30.496Z,0
2016-04-07T02:04:30.436Z,0
2016-04-07T02:05:30.424Z,0
2016-04-07T02:06:30.332Z,0
2016-04-07T02:07:30.272Z,0
2016-04-07T02:08:30.228Z,0
2016-04-07T02:09:30.185Z,0
2016-04-07T02:10:30.125Z,0
2016-04-07T02:11:30.080Z,0
2016-04-07T02:12:30.020Z,0
2016-04-07T02:13:29.977Z,0
2016-04-07T02:14:29.916Z,0
2016-04-07T02:15:29.857Z,0
2016-04-07T02:16:29.813Z,0
2016-04-07T02:17:29.752Z,0
2016-04-07T02:18:29.693Z,0
2016-04-07T02:19:29.618Z,0
2016-04-07T02:20:29.573Z,0
2016-04-07T02:21:29.545Z,0
2016-04-07T02:22:29.470Z,0
2016-04-07T02:23:29.409Z,0
2016-04-07T02:24:29.350Z,0
2016-04-07T02:25:29.321Z,0
2016-04-07T02:26:29.262Z,0
2016-04-07T02:27:29.201Z,0
2016-04-07T02:28:29.142Z,0
2016-04-07T02:29:29.082Z,0
2016-04-07T02:30:29.038Z,0
2016-04-07T02:31:29.009Z,0
2016-04-07T02:32:28.933Z,0
2016-04-07T02:33:28.858Z,0
2016-04-07T02:34:28.845Z,0
2016-04-07T02:35:28.755Z,0
2016-04-07T02:36:28.711Z,0
2016-04-07T02:37:28.681Z,0
2016-04-07T02:38:28.605Z,0
2016-04-07T02:39:28.546Z,0
2016-04-07T02:40:28.502Z,0
2016-04-07T02:41:28.441Z,0
2016-04-07T02:42:28.382Z,0
2016-04-07T02:43:28.322Z,0
2016-04-07T02:44:28.279Z,0
2016-04-07T02:45:28.265Z,0
2016-04-07T02:46:28.159Z,0
2016-04-07T02:47:28.115Z,0
2016-04-07T02:48:28.055Z,0
2016-04-07T02:49:28.026Z,0
2016-04-07T02:50:27.966Z,0
2016-04-07T02:51:27.891Z,0
2016-04-07T02:52:27.862Z,0
2016-04-07T02:53:27.803Z,0
2016-04-07T02:54:27.743Z,0
2016-04-07T02:55:27.684Z,0
2016-04-07T02:56:27.623Z,0
2016-04-07T02:57:27.579Z,0
2016-04-07T02:58:27.534Z,0
2016-04-07T02:59:27.444Z,0
2016-04-07T03:00:27.400Z,0
2016-04-07T03:01:27.371Z,0
2016-04-07T03:02:27.295Z,0
2016-04-07T03:03:27.236Z,0
2016-04-07T03:04:27.208Z,0
2016-04-07T03:05:27.132Z,0
2016-04-07T03:06:27.072Z,0
2016-04-07T03:07:27.012Z,0
2016-04-07T03:08:27.000Z,0
2016-04-07T03:09:26.939Z,0
2016-04-07T03:10:26.880Z,0
2016-04-07T03:11:26.820Z,0
2016-04-07T03:12:26.776Z,0
2016-04-07T03:13:26.715Z,0
2016-04-07T03:14:26.655Z,0
2016-04-07T03:15:26.596Z,0
2016-04-07T03:16:26.536Z,0
2016-04-07T03:17:26.335Z,0
2016-04-07T03:18:26.448Z,0
2016-04-07T03:19:26.387Z,0
2016-04-07T03:20:26.344Z,0
2016-04-07T03:21:26.268Z,0
2016-04-07T03:22:26.240Z,0
2016-04-07T03:23:26.179Z,0
2016-04-07T03:24:26.120Z,0
2016-04-07T03:25:26.060Z,0
2016-04-07T03:26:26.001Z,0
2016-04-07T03:27:25.987Z,0
2016-04-07T03:28:25.881Z,0
2016-04-07T03:29:25.853Z,0
2016-04-07T03:30:25.792Z,0
2016-04-07T03:31:25.733Z,0
2016-04-07T03:32:25.689Z,0
2016-04-07T03:33:25.629Z,0
2016-04-07T03:34:25.600Z,0
2016-04-07T03:35:25.556Z,0
2016-04-07T03:36:25.450Z,0
2016-04-07T03:37:25.390Z,0
2016-04-07T03:38:25.361Z,0
2016-04-07T03:39:25.302Z,0
2016-04-07T03:40:25.320Z,0
2016-04-07T03:41:25.197Z,0
2016-04-07T03:42:25.138Z,0
2016-04-07T03:43:25.124Z,0
2016-04-07T03:44:25.034Z,0
2016-04-07T03:45:24.989Z,0
2016-04-07T03:46:24.946Z,0
2016-04-07T03:47:24.870Z,0
2016-04-07T03:48:24.809Z,0
2016-04-07T03:49:24.781Z,0
2016-04-07T03:50:24.706Z,0
2016-04-07T03:51:24.662Z,0
2016-04-07T03:52:24.617Z,0
2016-04-07T03:53:24.558Z,0
2016-04-07T03:54:24.514Z,0
2016-04-07T03:55:24.454Z,0
2016-04-07T03:56:24.393Z,0
2016-04-07T03:57:24.365Z,0
2016-04-07T03:58:24.134Z,0
2016-04-07T03:59:24.261Z,0
2016-04-07T04:00:24.201Z,0
2016-04-07T04:01:24.142Z,0
2016-04-07T04:02:24.066Z,0
2016-04-07T04:03:24.006Z,0
2016-04-07T04:04:23.978Z,0
2016-04-07T04:05:23.918Z,0
2016-04-07T04:06:23.858Z,0
2016-04-07T04:07:23.783Z,0
2016-04-07T04:08:23.739Z,0
2016-04-07T04:09:23.695Z,0
2016-04-07T04:10:23.650Z,0
2016-04-07T04:11:23.575Z,0
2016-04-07T04:12:23.531Z,0
2016-04-07T04:13:23.471Z,0
2016-04-07T04:14:23.427Z,0
2016-04-07T04:15:23.367Z,0
2016-04-07T04:16:23.307Z,0
2016-04-07T04:17:23.247Z,0
2016-04-07T04:18:23.203Z,0
2016-04-07T04:19:23.175Z,0
2016-04-07T04:20:23.083Z,0
2016-04-07T04:21:23.040Z,0
2016-04-07T04:22:23.011Z,0
2016-04-07T04:23:22.920Z,0
2016-04-07T04:24:22.891Z,0
2016-04-07T04:25:22.801Z,0
2016-04-07T04:26:22.787Z,0
2016-04-07T04:27:22.727Z,0
2016-04-07T04:28:22.668Z,0
2016-04-07T04:29:22.593Z,0
2016-04-07T04:30:22.547Z,0
2016-04-07T04:31:22.487Z,0
2016-04-07T04:32:22.444Z,0
2016-04-07T04:33:22.415Z,0
2016-04-07T04:34:22.325Z,0
2016-04-07T04:35:22.264Z,0
2016-04-07T04:36:22.236Z,0
2016-04-07T04:37:22.160Z,0
2016-04-07T04:38:22.100Z,0
2016-04-07T04:39:22.041Z,0
2016-04-07T04:40:22.075Z,0
2016-04-07T04:41:21.937Z,0
2016-04-07T04:42:21.721Z,0
2016-04-07T04:43:21.848Z,0
2016-04-07T04:44:21.788Z,0
2016-04-07T04:45:21.713Z,0
2016-04-07T04:46:21.669Z,0
2016-04-07T04:47:21.609Z,0
2016-04-07T04:48:21.565Z,4
2016-04-07T04:49:21.505Z,4
2016-04-07T04:50:21.477Z,0
2016-04-07T04:51:21.401Z,0
2016-04-07T04:52:21.357Z,0
2016-04-07T04:53:21.297Z,0
2016-04-07T04:54:21.238Z,0
2016-04-07T04:55:21.193Z,0
2016-04-07T04:56:21.134Z,0
2016-04-07T04:57:21.090Z,4
2016-04-07T04:58:21.045Z,4
2016-04-07T04:59:20.985Z,4
2016-04-07T05:00:20.925Z,0
2016-04-07T05:01:20.865Z,0
2016-04-07T05:02:20.821Z,0
2016-04-07T05:03:20.746Z,0
2016-04-07T05:04:20.717Z,0
2016-04-07T05:05:20.642Z,0
2016-04-07T05:06:20.614Z,0
2016-04-07T05:07:20.539Z,0
2016-04-07T05:08:20.494Z,4
2016-04-07T05:09:20.465Z,4
2016-04-07T05:10:20.374Z,4
2016-04-07T05:11:20.345Z,4
2016-04-07T05:12:20.270Z,4
2016-04-07T05:13:20.210Z,4
2016-04-07T05:14:20.167Z,4
2016-04-07T05:15:20.106Z,4
2016-04-07T05:16:19.297Z,4
2016-04-07T05:17:20.002Z,0
2016-04-07T05:18:19.958Z,0
2016-04-07T05:19:19.883Z,4
2016-04-07T05:20:19.119Z,4
2016-04-07T05:21:19.779Z,0
2016-04-07T05:22:19.766Z,0
2016-04-07T05:23:19.674Z,0
2016-04-07T05:24:19.709Z,4
2016-04-07T05:25:19.586Z,4
2016-04-07T05:26:19.526Z,4
2016-04-07T05:27:19.513Z,4
2016-04-07T05:28:19.423Z,4
2016-04-07T05:29:19.379Z,4
2016-04-07T05:30:19.303Z,4
2016-04-07T05:31:19.259Z,4
2016-04-07T05:32:19.214Z,4
2016-04-07T05:33:19.139Z,4
2016-04-07T05:34:19.111Z,4
2016-04-07T05:35:19.035Z,4
2016-04-07T05:36:19.006Z,4
2016-04-07T05:37:18.931Z,4
2016-04-07T05:38:18.918Z,4
2016-04-07T05:39:18.828Z,4
2016-04-07T05:40:18.767Z,4
2016-04-07T05:41:18.708Z,8
2016-04-07T05:42:18.663Z,4
2016-04-07T05:43:18.619Z,4
2016-04-07T05:44:18.559Z,8
2016-04-07T05:45:18.500Z,8
2016-04-07T05:46:18.486Z,8
2016-04-07T05:47:18.396Z,4
2016-04-07T05:48:18.367Z,4
2016-04-07T05:49:18.308Z,4
2016-04-07T05:50:18.247Z,4
2016-04-07T05:51:18.203Z,4
2016-04-07T05:52:18.144Z,8
2016-04-07T05:53:18.083Z,8
2016-04-07T05:54:18.165Z,8
2016-04-07T05:55:17.949Z,4
2016-04-07T05:56:17.921Z,4
2016-04-07T05:57:17.860Z,4
2016-04-07T05:58:17.800Z,8
2016-04-07T05:59:17.756Z,8
2016-04-07T06:00:17.712Z,8
2016-04-07T06:01:17.667Z,4
2016-04-07T06:02:17.592Z,4
2016-04-07T06:03:17.564Z,8
2016-04-07T06:04:17.692Z,8
2016-04-07T06:05:17.428Z,8
2016-04-07T06:06:17.384Z,8
2016-04-07T06:07:17.339Z,8
2016-04-07T06:08:17.253Z,8
2016-04-07T06:09:17.569Z,8
2016-04-07T06:10:17.181Z,8
2016-04-07T06:11:17.106Z,8
2016-04-07T06:12:17.077Z,8
2016-04-07T06:13:17.033Z,4
2016-04-07T06:14:16.958Z,8
2016-04-07T06:15:16.897Z,8
2016-04-07T06:16:16.869Z,8
2016-04-07T06:17:16.653Z,8
2016-04-07T06:18:16.749Z,8
2016-04-07T06:19:16.690Z,8
2016-04-07T06:20:16.646Z,8
2016-04-07T06:21:16.586Z,8
2016-04-07T06:22:16.526Z,8
2016-04-07T06:23:16.466Z,8
2016-04-07T06:24:16.749Z,8
2016-04-07T06:25:16.377Z,8
2016-04-07T06:26:16.333Z,8
2016-04-07T06:27:16.304Z,8
2016-04-07T06:28:16.198Z,12
2016-04-07T06:29:16.154Z,8
2016-04-07T06:30:16.094Z,8
2016-04-07T06:31:15.315Z,12
2016-04-07T06:32:16.021Z,8
2016-04-07T06:33:15.945Z,8
2016-04-07T06:34:15.901Z,12
2016-04-07T06:35:15.842Z,8
2016-04-07T06:36:15.798Z,8
2016-04-07T06:37:15.738Z,12
2016-04-07T06:38:15.709Z,12
2016-04-07T06:39:15.680Z,12
2016-04-07T06:40:15.575Z,8
2016-04-07T06:41:15.561Z,12
2016-04-07T06:42:15.470Z,12
2016-04-07T06:43:15.411Z,12
2016-04-07T06:44:15.398Z,12
2016-04-07T06:45:15.322Z,12
2016-04-07T06:46:15.277Z,12
2016-04-07T06:47:15.233Z,16
2016-04-07T06:48:15.158Z,12
2016-04-07T06:49:15.099Z,12
2016-04-07T06:50:15.070Z,16
2016-04-07T06:51:14.994Z,16
2016-04-07T06:52:14.950Z,16
2016-04-07T06:53:15.484Z,16
2016-04-07T06:54:14.893Z,20
2016-04-07T06:55:14.786Z,20
2016-04-07T06:56:14.757Z,16
2016-04-07T06:57:14.667Z,16
2016-04-07T06:58:14.638Z,20
2016-04-07T06:59:14.610Z,20
2016-04-07T07:00:14.550Z,16
2016-04-07T07:01:14.490Z,20
2016-04-07T07:02:14.430Z,20
2016-04-07T07:03:14.386Z,20
2016-04-07T07:04:14.311Z,20
2016-04-07T07:05:14.267Z,20
2016-04-07T07:06:14.238Z,20
2016-04-07T07:07:14.162Z,20
2016-04-07T07:08:14.118Z,20
2016-04-07T07:09:14.090Z,20
2016-04-07T07:10:13.983Z,20
2016-04-07T07:11:13.939Z,20
2016-04-07T07:12:13.894Z,20
2016-04-07T07:13:13.835Z,20
2016-04-07T07:14:13.759Z,24
2016-04-07T07:15:13.731Z,20
2016-04-07T07:16:13.765Z,24
2016-04-07T07:17:18.142Z,24
2016-04-07T07:18:13.583Z,24
2016-04-07T07:19:13.507Z,24
2016-04-07T07:20:13.494Z,24
2016-04-07T07:21:13.388Z,20
2016-04-07T07:22:13.343Z,24
2016-04-07T07:23:13.315Z,20
2016-04-07T07:24:13.270Z,24
2016-04-07T07:25:13.195Z,24
2016-04-07T07:26:13.135Z,20
2016-04-07T07:27:13.091Z,24
2016-04-07T07:28:13.047Z,24
2016-04-07T07:29:12.987Z,24
2016-04-07T07:30:12.849Z,24
2016-04-07T07:31:12.898Z,28
2016-04-07T07:32:12.793Z,24
2016-04-07T07:33:12.754Z,28
2016-04-07T07:34:15.912Z,24
2016-04-07T07:35:12.665Z,28
2016-04-07T07:36:12.605Z,28
2016-04-07T07:37:12.546Z,28
2016-04-07T07:38:12.533Z,28
2016-04-07T07:39:12.457Z,28
2016-04-07T07:40:12.403Z,28
2016-04-07T07:41:12.358Z,28
2016-04-07T07:42:12.298Z,28
2016-04-07T07:43:12.036Z,28
2016-04-07T07:44:12.178Z,28
2016-04-07T07:45:12.134Z,28
2016-04-07T07:46:12.122Z,28
2016-04-07T07:47:12.015Z,32
2016-04-07T07:48:11.956Z,28
2016-04-07T07:49:11.927Z,32
2016-04-07T07:50:11.883Z,28
2016-04-07T07:51:11.791Z,32
2016-04-07T07:52:11.778Z,28
2016-04-07T07:53:11.718Z,32
2016-04-07T07:54:11.658Z,32
2016-04-07T07:55:11.615Z,28
2016-04-07T07:56:11.554Z,32
2016-04-07T07:57:11.495Z,32
2016-04-07T07:58:11.451Z,32
2016-04-07T07:59:11.391Z,36
2016-04-07T08:00:11.129Z,32
2016-04-07T08:01:11.287Z,36
2016-04-07T08:02:11.212Z,36
2016-04-07T08:03:11.215Z,36
2016-04-07T08:04:11.123Z,36
2016-04-07T08:05:11.095Z,40
2016-04-07T08:06:11.425Z,36
2016-04-07T08:07:10.975Z,40
2016-04-07T08:08:10.931Z,40
2016-04-07T08:09:10.871Z,36
2016-04-07T08:10:10.656Z,36
2016-04-07T08:11:10.783Z,40
2016-04-07T08:12:10.707Z,40
2016-04-07T08:13:10.663Z,40
2016-04-07T08:14:10.619Z,40
2016-04-07T08:15:10.544Z,40
2016-04-07T08:16:10.500Z,36
2016-04-07T08:17:10.440Z,40
2016-04-07T08:18:10.411Z,40
2016-04-07T08:19:10.336Z,40
2016-04-07T08:20:10.291Z,40
2016-04-07T08:21:10.294Z,40
2016-04-07T08:22:10.188Z,36
2016-04-07T08:23:10.143Z,36
2016-04-07T08:24:10.114Z,36
2016-04-07T08:25:10.023Z,36
2016-04-07T08:26:09.994Z,40
2016-04-07T08:27:09.935Z,36
2016-04-07T08:28:09.891Z,36
2016-04-07T08:29:09.816Z,36
2016-04-07T08:30:09.803Z,36
2016-04-07T08:31:09.743Z,36
2016-04-07T08:32:09.715Z,36
2016-04-07T08:33:09.623Z,40
2016-04-07T08:34:09.563Z,40
2016-04-07T08:35:09.534Z,40
2016-04-07T08:36:09.443Z,40
2016-04-07T08:37:09.401Z,40
2016-04-07T08:38:09.372Z,44
2016-04-07T08:39:09.938Z,40
2016-04-07T08:40:09.268Z,44
2016-04-07T08:41:09.208Z,40
2016-04-07T08:42:09.163Z,44
2016-04-07T08:43:09.088Z,44
2016-04-07T08:44:09.060Z,48
2016-04-07T08:45:09.032Z,48
2016-04-07T08:46:08.941Z,48
2016-04-07T08:47:08.896Z,56
2016-04-07T08:48:08.821Z,52
2016-04-07T08:49:08.776Z,52
2016-04-07T08:50:08.717Z,56
2016-04-07T08:51:08.672Z,52
2016-04-07T08:52:08.706Z,56
2016-04-07T08:53:08.584Z,56
2016-04-07T08:54:08.962Z,56
2016-04-07T08:55:08.480Z,56
2016-04-07T08:56:08.436Z,56
2016-04-07T08:57:08.361Z,56
2016-04-07T08:58:08.300Z,60
2016-04-07T08:59:08.272Z,56
2016-04-07T09:00:08.197Z,56
2016-04-07T09:01:08.153Z,56
2016-04-07T09:02:08.093Z,56
2016-04-07T09:03:08.048Z,56
2016-04-07T09:04:08.005Z,60
2016-04-07T09:05:07.975Z,60
2016-04-07T09:06:07.916Z,64
2016-04-07T09:07:07.855Z,60
2016-04-07T09:08:20.515Z,64
2016-04-07T09:09:07.736Z,60
2016-04-07T09:10:07.739Z,56
2016-04-07T09:11:07.991Z,56
2016-04-07T09:12:07.605Z,56
2016-04-07T09:13:07.529Z,52
2016-04-07T09:14:07.500Z,52
2016-04-07T09:15:07.424Z,52
2016-04-07T09:16:07.377Z,52
2016-04-07T09:17:07.333Z,48
2016-04-07T09:18:07.274Z,48
2016-04-07T09:19:07.213Z,52
2016-04-07T09:20:07.170Z,48
2016-04-07T09:21:07.109Z,48
2016-04-07T09:22:07.051Z,52
2016-04-07T09:23:07.030Z,52
2016-04-07T09:24:07.022Z,52
2016-04-07T09:25:07.030Z,52
2016-04-07T09:26:07.209Z,52
2016-04-07T09:27:06.967Z,48
2016-04-07T09:28:06.960Z,48
2016-04-07T09:29:06.899Z,44
2016-04-07T09:30:06.851Z,44
2016-04-07T09:31:06.820Z,44
2016-04-07T09:32:06.774Z,44
2016-04-07T09:33:06.737Z,44
2016-04-07T09:34:06.947Z,48
2016-04-07T09:35:06.673Z,48
2016-04-07T09:36:06.586Z,44
2016-04-07T09:37:06.531Z,48
2016-04-07T09:38:06.521Z,48
2016-04-07T09:39:06.463Z,48
2016-04-07T09:40:06.625Z,52
2016-04-07T09:41:06.364Z,48
2016-04-07T09:42:06.305Z,52
2016-04-07T09:43:06.247Z,56
2016-04-07T09:44:06.203Z,52
2016-04-07T09:45:06.223Z,60
2016-04-07T09:46:06.101Z,56
2016-04-07T09:47:06.026Z,60
2016-04-07T09:48:05.997Z,64
2016-04-07T09:49:05.938Z,68
2016-04-07T09:50:05.878Z,68
2016-04-07T09:51:05.850Z,68
2016-04-07T09:52:05.790Z,68
2016-04-07T09:53:05.730Z,68
2016-04-07T09:54:05.685Z,68
2016-04-07T09:55:05.704Z,72
2016-04-07T09:56:05.551Z,68
2016-04-07T09:57:05.366Z,72
2016-04-07T09:58:05.477Z,68
2016-04-07T09:59:05.434Z,72
2016-04-07T10:00:05.374Z,72
2016-04-07T10:01:05.314Z,72
2016-04-07T10:02:05.270Z,72
2016-04-07T10:03:05.069Z,72
2016-04-07T10:04:05.150Z,72
2016-04-07T10:05:05.121Z,76
2016-04-07T10:06:04.312Z,76
2016-04-07T10:07:04.268Z,76
2016-04-07T10:08:05.021Z,76
2016-04-07T10:09:04.928Z,80
2016-04-07T10:10:04.884Z,76
2016-04-07T10:11:04.778Z,80
2016-04-07T10:12:04.734Z,84
2016-04-07T10:13:04.658Z,88
2016-04-07T10:14:04.614Z,96
2016-04-07T10:15:04.617Z,100
2016-04-07T10:16:04.510Z,104
2016-04-07T10:17:04.483Z,108
2016-04-07T10:18:04.406Z,112
2016-04-07T10:19:04.378Z,108
2016-04-07T10:20:04.303Z,108
2016-04-07T10:21:04.274Z,100
2016-04-07T10:22:04.214Z,100
2016-04-07T10:23:04.154Z,104
2016-04-07T10:24:04.111Z,100
2016-04-07T10:25:04.238Z,100
2016-04-07T10:26:04.038Z,96
2016-04-07T10:27:03.963Z,96
2016-04-07T10:28:03.918Z,96
2016-04-07T10:29:03.858Z,96
2016-04-07T10:30:03.829Z,88
2016-04-07T10:31:03.754Z,88
2016-04-07T10:32:03.693Z,84
2016-04-07T10:33:03.665Z,80
2016-04-07T10:34:03.621Z,80
2016-04-07T10:35:03.531Z,84
2016-04-07T10:36:03.534Z,80
2016-04-07T10:37:03.473Z,80
2016-04-07T10:38:03.429Z,80
2016-04-07T10:39:03.337Z,76
2016-04-07T10:40:03.387Z,72
2016-04-07T10:41:03.264Z,72
2016-04-07T10:42:03.205Z,76
2016-04-07T10:43:03.161Z,76
2016-04-07T10:44:03.101Z,76
2016-04-07T10:45:03.448Z,76
2016-04-07T10:46:02.982Z,72
2016-04-07T10:47:02.922Z,68
2016-04-07T10:48:02.878Z,60
2016-04-07T10:49:02.865Z,60
2016-04-07T10:50:02.774Z,68
2016-04-07T10:51:02.745Z,72
2016-04-07T10:52:02.717Z,80
2016-04-07T10:53:02.673Z,76
2016-04-07T10:54:02.800Z,68
2016-04-07T10:55:02.600Z,60
2016-04-07T10:56:02.477Z,56
2016-04-07T10:57:02.433Z,60
2016-04-07T10:58:02.389Z,60
2016-04-07T10:59:02.345Z,64
2016-04-07T11:00:02.285Z,60
2016-04-07T11:01:02.068Z,64
2016-04-07T11:02:02.181Z,60
2016-04-07T11:03:02.152Z,64
2016-04-07T11:04:02.093Z,60
2016-04-07T11:05:02.049Z,64
2016-04-07T11:06:02.004Z,64
2016-04-07T11:07:01.945Z,64
2016-04-07T11:08:01.869Z,64
2016-04-07T11:09:01.809Z,64
2016-04-07T11:10:01.827Z,64
2016-04-07T11:11:01.720Z,68
2016-04-07T11:12:01.661Z,64
2016-04-07T11:13:01.601Z,68
2016-04-07T11:14:01.557Z,68
2016-04-07T11:15:01.514Z,68
2016-04-07T11:16:01.453Z,64
2016-04-07T11:17:01.628Z,68
2016-04-07T11:18:01.364Z,64
2016-04-07T11:19:01.305Z,64
2016-04-07T11:20:01.277Z,64
2016-04-07T11:21:01.233Z,64
2016-04-07T11:22:01.158Z,68
2016-04-07T11:23:01.113Z,64
2016-04-07T11:24:01.038Z,64
2016-04-07T11:25:01.040Z,64
2016-04-07T11:26:00.964Z,64
2016-04-07T11:27:00.888Z,64
2016-04-07T11:28:00.876Z,60
2016-04-07T11:29:00.801Z,60
2016-04-07T11:30:00.757Z,60
2016-04-07T11:31:00.697Z,60
2016-04-07T11:32:00.652Z,56
2016-04-07T11:33:00.593Z,52
2016-04-07T11:34:00.580Z,56
2016-04-07T11:35:00.488Z,56
2016-04-07T11:36:00.445Z,60
2016-04-07T11:37:00.416Z,56
2016-04-07T11:38:00.356Z,56
2016-04-07T11:39:00.343Z,60
2016-04-07T11:40:00.362Z,60
2016-04-07T11:41:00.271Z,56
2016-04-07T11:42:00.211Z,56
2016-04-07T11:43:00.104Z,52
2016-04-07T11:44:00.092Z,56
2016-04-07T11:45:00.047Z,56
2016-04-07T11:45:59.972Z,56
2016-04-07T11:46:59.959Z,56
2016-04-07T11:47:59.930Z,52
2016-04-07T11:48:59.839Z,52
2016-04-07T11:49:59.811Z,52
2016-04-07T11:50:59.703Z,52
2016-04-07T11:51:59.659Z,48
2016-04-07T11:52:59.647Z,48
2016-04-07T11:53:59.571Z,48
2016-04-07T11:54:59.839Z,48
2016-04-07T11:55:59.467Z,48
2016-04-07T11:56:59.408Z,48
2016-04-07T11:57:59.363Z,48
2016-04-07T11:58:59.350Z,48
2016-04-07T11:59:59.260Z,48
2016-04-07T12:00:59.183Z,48
2016-04-07T12:01:59.140Z,48
2016-04-07T12:02:59.096Z,48
2016-04-07T12:03:59.020Z,44
2016-04-07T12:04:58.991Z,48
2016-04-07T12:05:58.963Z,48
2016-04-07T12:06:58.903Z,48
2016-04-07T12:07:58.921Z,48
2016-04-07T12:08:58.784Z,48
2016-04-07T12:09:58.739Z,48
2016-04-07T12:10:58.679Z,48
2016-04-07T12:11:58.666Z,48
2016-04-07T12:12:58.637Z,48
2016-04-07T12:13:58.531Z,48
2016-04-07T12:14:58.503Z,48
2016-04-07T12:15:58.412Z,48
2016-04-07T12:16:58.398Z,48
2016-04-07T12:17:58.323Z,48
2016-04-07T12:18:58.247Z,48
2016-04-07T12:19:58.188Z,48
2016-04-07T12:20:58.144Z,48
2016-04-07T12:21:58.208Z,52
2016-04-07T12:22:58.071Z,52
2016-04-07T12:23:57.994Z,48
2016-04-07T12:24:57.935Z,48
2016-04-07T12:25:57.891Z,52
2016-04-07T12:26:57.816Z,52
2016-04-07T12:27:57.788Z,48
2016-04-07T12:28:57.727Z,48
2016-04-07T12:29:57.668Z,48
2016-04-07T12:30:57.655Z,52
2016-04-07T12:31:57.563Z,48
2016-04-07T12:32:57.504Z,48
2016-04-07T12:33:57.443Z,52
2016-04-07T12:34:57.415Z,48
2016-04-07T12:35:57.387Z,52
2016-04-07T12:36:57.327Z,52
2016-04-07T12:37:57.268Z,48
2016-04-07T12:38:56.489Z,48
2016-04-07T12:39:57.179Z,48
2016-04-07T12:40:57.228Z,48
2016-04-07T12:41:57.059Z,48
2016-04-07T12:42:57.000Z,44
2016-04-07T12:43:56.971Z,48
2016-04-07T12:44:56.927Z,44
2016-04-07T12:45:56.867Z,44
2016-04-07T12:46:56.823Z,44
2016-04-07T12:47:56.747Z,44
2016-04-07T12:48:56.703Z,40
2016-04-07T12:49:56.658Z,40
2016-04-07T12:50:56.614Z,40
2016-04-07T12:51:56.555Z,40
2016-04-07T12:52:56.494Z,40
2016-04-07T12:53:56.451Z,40
2016-04-07T12:54:56.250Z,40
2016-04-07T12:55:56.363Z,36
2016-04-07T12:56:56.306Z,36
2016-04-07T12:57:56.308Z,40
2016-04-07T12:58:56.202Z,36
2016-04-07T12:59:56.157Z,36
2016-04-07T13:00:56.082Z,36
2016-04-07T13:01:56.054Z,32
2016-04-07T13:02:55.994Z,32
2016-04-07T13:03:55.949Z,32
2016-04-07T13:04:55.890Z,28
2016-04-07T13:05:55.861Z,28
2016-04-07T13:06:55.801Z,28
2016-04-07T13:07:55.757Z,28
2016-04-07T13:08:55.682Z,28
2016-04-07T13:09:55.621Z,28
2016-04-07T13:10:55.578Z,28
2016-04-07T13:11:55.534Z,24
2016-04-07T13:12:55.473Z,24
2016-04-07T13:13:55.430Z,24
2016-04-07T13:14:55.385Z,20
2016-04-07T13:15:55.326Z,24
2016-04-07T13:16:55.265Z,24
2016-04-07T13:17:55.222Z,24
2016-04-07T13:18:55.192Z,24
2016-04-07T13:19:55.117Z,20
2016-04-07T13:20:55.073Z,20
2016-04-07T13:21:55.060Z,20
2016-04-07T13:22:54.986Z,20
2016-04-07T13:23:54.941Z,20
2016-04-07T13:24:54.881Z,20
2016-04-07T13:25:54.822Z,20
2016-04-07T13:26:54.777Z,20
2016-04-07T13:27:54.738Z,20
2016-04-07T13:28:54.677Z,20
2016-04-07T13:29:54.618Z,20
2016-04-07T13:30:54.574Z,20
2016-04-07T13:31:54.514Z,16
2016-04-07T13:32:54.486Z,16
2016-04-07T13:33:54.410Z,16
2016-04-07T13:34:54.351Z,16
2016-04-07T13:35:54.321Z,12
2016-04-07T13:36:54.277Z,16
2016-04-07T13:37:54.233Z,16
2016-04-07T13:38:54.157Z,16
2016-04-07T13:39:54.129Z,16
2016-04-07T13:40:54.054Z,16
2016-04-07T13:41:53.995Z,16
2016-04-07T13:42:53.950Z,12
2016-04-07T13:43:53.890Z,16
2016-04-07T13:44:53.862Z,16
2016-04-07T13:45:53.801Z,12
2016-04-07T13:46:53.758Z,16
2016-04-07T13:47:53.681Z,16
2016-04-07T13:48:53.638Z,12
2016-04-07T13:49:53.594Z,12
2016-04-07T13:50:53.550Z,12
2016-04-07T13:51:53.489Z,12
2016-04-07T13:52:53.430Z,16
2016-04-07T13:53:53.402Z,16
2016-04-07T13:54:53.326Z,12
2016-04-07T13:55:53.297Z,12
2016-04-07T13:56:53.222Z,16
2016-04-07T13:57:53.177Z,16
2016-04-07T13:58:53.133Z,16
2016-04-07T13:59:53.074Z,12
2016-04-07T14:00:53.046Z,16
2016-04-07T14:01:52.986Z,16
2016-04-07T14:02:52.926Z,16
2016-04-07T14:03:52.882Z,16
2016-04-07T14:04:52.821Z,20
2016-04-07T14:05:52.777Z,16
2016-04-07T14:06:52.732Z,20
2016-04-07T14:07:52.657Z,16
2016-04-07T14:08:52.598Z,16
2016-04-07T14:09:52.569Z,16
2016-04-07T14:10:52.729Z,20
2016-04-07T14:11:52.496Z,20
2016-04-07T14:12:52.390Z,20
2016-04-07T14:13:52.502Z,20
2016-04-07T14:14:52.301Z,16
2016-04-07T14:15:52.242Z,20
2016-04-07T14:16:52.213Z,16
2016-04-07T14:17:52.122Z,16
2016-04-07T14:18:52.108Z,16
2016-04-07T14:19:52.033Z,16
2016-04-07T14:20:51.989Z,16
2016-04-07T14:21:51.930Z,16
2016-04-07T14:22:51.870Z,12
2016-04-07T14:23:51.825Z,16
2016-04-07T14:24:51.781Z,12
2016-04-07T14:25:51.550Z,12
2016-04-07T14:26:51.678Z,16
2016-04-07T14:27:51.634Z,16
2016-04-07T14:28:51.574Z,16